Terminal Aerodrome Forecast
Issued by NWS

Home | Current Version | Previous Version | Text Only | Print | Product List | Glossary On
Versions: 1 2 3 4 5 6 7 8 9 10 11
000
FTUS45 KRIW 130533
TAFRKS
TAF
KRKS 130533Z 1306/1406 25012KT P6SM BKN250
     FM131200 26010KT P6SM SCT110 BKN200
     FM132300 29010KT P6SM VCSH BKN050 PROB30 1400/1404 3SM -SHSN
      BKN022
     FM140400 05009KT P6SM VCSH BKN035=

USA.gov is the U.S. government's official web portal to all federal, state and local government web resources and services.